Accident: Biman DH8D at Yangon on May 8th 2019, runway excursion

A Biman Bangladesh de Havilland Dash 8-400, registration S2-AGQ performing flight BG-60 from Dhaka (Bangladesh) to Yangon (Myanmar) with 29 passengers and 4 crew, landed on Yangon’s runway 21 at about 18:50L (12:20Z) but veered left off the runway and came to a stop on soft ground with all gear collapsed and the fuselage broken into three sections. All 33 occupants received injuries, 19 of them were taken to hospitals with non-life threatening injuries.

The airport was closed for about 2:30 hours as result of the accident, then resumed operations, the first operation after the accident, a landing on runway 21, took place at 14:52Z. The last landing prior to the accident happened on runway 21 at 12:17Z.

The airline confirmed 29 passengers, two pilots and two cabin crew on board of the aircraft.

The Bangladeshi Ambassador to Myanmar reported from the hospital that 19 people were hospitalized, none of those with life-threatening injuries.

Metars:
VYYY 081430Z 25004KT 6000 -TSRA BKN015 FEW018CB OVC100 27/26 Q1005=
VYYY 081400Z 30004KT 5000 -TSRA BKN015 FEW018CB OVC100 27/26 Q1005=
VYYY 081330Z 30004KT 5000 -TSRA BKN015 FEW018CB OVC100 27/26 Q1005=
VYYY 081300Z 21007KT 5000 -TSRA BKN012 FEW016CB OVC100 30/27 Q1004=
VYYY 081230Z 03008KT 4000 TSRA BKN012 FEW016CB OVC100 30/27 Q1004=
VYYY 081200Z VRB10G20KT 3000 +TSRA BKN010 FEW015CB OVC080 30/27 Q1003=
VYYY 081130Z 15005G15KT 6000 -TSRA BKN018 FEW020CB BKN100 35/24 Q1002=
VYYY 081100Z 24007KT 7000 SCT018 FEW020TCU BKN100 35/24 Q1001=
VYYY 081030Z 25004KT 7000 SCT018 FEW020TCU BKN100 35/24 Q1001=
VYYY 081000Z 26005KT 7000 SCT018 FEW020TCU BKN100 37/25 Q1001=
VYYY 080930Z 26005KT 7000 SCT018 FEW020TCU BKN100 37/25 Q1001=
VYYY 080830Z 26005KT 7000 SCT018 FEW020TCU SCT100 38/24 Q1001=